createdAt,value
2022-10-12T00:02:07.695Z,66.58
2022-10-12T00:04:35.286Z,66.84
2022-10-12T00:07:02.618Z,66.47
2022-10-12T00:09:29.982Z,65.65
2022-10-12T00:11:57.528Z,65.74
2022-10-12T00:14:24.849Z,65.45
2022-10-12T00:16:52.213Z,64.50
2022-10-12T00:19:19.800Z,64.52
2022-10-12T00:21:47.156Z,65.38
2022-10-12T00:24:14.509Z,65.63
2022-10-12T00:26:42.078Z,64.82
2022-10-12T00:29:09.488Z,64.57
2022-10-12T00:31:36.915Z,65.16
2022-10-12T00:34:04.544Z,65.48
2022-10-12T00:36:33.964Z,65.06
2022-10-12T00:39:01.708Z,65.21
2022-10-12T00:41:31.359Z,65.70
2022-10-12T00:43:59.047Z,65.45
2022-10-12T00:46:32.855Z,65.26
2022-10-12T00:49:21.064Z,65.15
2022-10-12T00:51:51.165Z,65.54
2022-10-12T00:54:26.692Z,65.42
2022-10-12T00:56:54.291Z,65.38
2022-10-12T00:59:23.889Z,65.00
2022-10-12T01:01:51.210Z,65.32
2022-10-12T01:04:18.714Z,65.63
2022-10-12T01:06:46.289Z,65.80
2022-10-12T01:09:14.237Z,65.91
2022-10-12T01:11:41.566Z,65.37
2022-10-12T01:14:09.154Z,65.92
2022-10-12T01:17:08.321Z,65.80
2022-10-12T01:19:47.864Z,65.66
2022-10-12T01:22:19.566Z,65.79
2022-10-12T01:24:53.508Z,65.65
2022-10-12T01:27:36.215Z,66.62
2022-10-12T01:30:07.894Z,66.00
2022-10-12T01:32:41.058Z,66.66
2022-10-12T01:35:15.949Z,66.59
2022-10-12T01:37:53.364Z,66.40
2022-10-12T01:40:28.130Z,66.38
2022-10-12T01:42:55.474Z,66.31
2022-10-12T01:45:23.120Z,65.88
2022-10-12T01:47:52.693Z,65.71
2022-10-12T01:50:22.026Z,65.80
2022-10-12T01:52:59.699Z,65.72
2022-10-12T01:55:35.669Z,65.85
2022-10-12T01:59:01.855Z,65.19
2022-10-12T02:01:56.216Z,65.40
2022-10-12T02:04:34.234Z,66.06
2022-10-12T02:07:04.223Z,66.53
2022-10-12T02:09:33.762Z,66.62
2022-10-12T02:12:14.126Z,66.90
2022-10-12T02:14:50.996Z,66.94
2022-10-12T02:17:18.665Z,65.07
2022-10-12T02:19:57.019Z,66.04
2022-10-12T02:22:25.666Z,65.75
2022-10-12T02:24:53.440Z,64.82
2022-10-12T02:27:20.764Z,66.02
2022-10-12T02:29:48.142Z,65.69
2022-10-12T02:32:27.757Z,66.10
2022-10-12T02:35:33.208Z,66.48
2022-10-12T02:38:03.990Z,66.87
2022-10-12T02:40:57.561Z,66.44
2022-10-12T02:43:54.235Z,66.52
2022-10-12T02:46:21.569Z,66.25
2022-10-12T02:48:49.709Z,66.15
2022-10-12T02:51:17.041Z,66.09
2022-10-12T02:53:45.233Z,64.96
2022-10-12T02:56:13.631Z,65.78
2022-10-12T02:58:44.462Z,66.38
2022-10-12T03:01:12.103Z,66.25
2022-10-12T03:03:40.542Z,66.45
2022-10-12T03:06:08.105Z,66.11
2022-10-12T03:08:35.590Z,65.97
2022-10-12T03:11:04.121Z,66.05
2022-10-12T03:13:31.469Z,66.10
2022-10-12T03:16:05.801Z,65.68
2022-10-12T03:18:34.357Z,66.26
2022-10-12T03:21:01.676Z,66.43
2022-10-12T03:23:28.998Z,66.07
2022-10-12T03:25:56.570Z,66.90
2022-10-12T03:28:24.091Z,66.68
2022-10-12T03:30:51.490Z,65.82
2022-10-12T03:33:19.440Z,66.03
2022-10-12T03:35:46.823Z,66.04
2022-10-12T03:38:14.636Z,67.24
2022-10-12T03:40:42.345Z,66.59
2022-10-12T03:43:09.768Z,66.89
2022-10-12T03:45:37.659Z,66.26
2022-10-12T03:48:06.792Z,66.17
2022-10-12T03:50:35.035Z,66.58
2022-10-12T03:53:03.299Z,66.82
2022-10-12T03:55:31.034Z,66.41
2022-10-12T03:57:59.971Z,66.57
2022-10-12T04:00:28.287Z,66.59
2022-10-12T04:02:55.910Z,66.65
2022-10-12T04:05:23.307Z,66.78
2022-10-12T04:07:50.912Z,66.52
2022-10-12T04:10:18.478Z,66.30
2022-10-12T04:12:46.133Z,66.27
2022-10-12T04:15:13.717Z,66.69
2022-10-12T04:17:41.602Z,66.78
2022-10-12T04:20:09.840Z,66.76
2022-10-12T04:22:37.468Z,66.20
2022-10-12T04:25:05.497Z,66.10
2022-10-12T04:27:32.812Z,66.73
2022-10-12T04:30:00.194Z,66.32
2022-10-12T04:32:27.758Z,66.56
2022-10-12T04:34:55.111Z,66.54
2022-10-12T04:37:22.441Z,66.37
2022-10-12T04:39:50.041Z,66.25
2022-10-12T04:42:17.353Z,66.42
2022-10-12T04:44:44.782Z,66.39
2022-10-12T04:47:12.383Z,66.37
2022-10-12T04:49:39.678Z,66.08
2022-10-12T04:52:07.017Z,66.03
2022-10-12T04:54:34.604Z,67.00
2022-10-12T04:57:01.933Z,66.74
2022-10-12T04:59:33.393Z,66.52
2022-10-12T05:02:01.030Z,66.77
2022-10-12T05:04:28.401Z,66.58
2022-10-12T05:06:55.799Z,66.13
2022-10-12T05:09:23.392Z,66.02
2022-10-12T05:11:50.696Z,66.13
2022-10-12T05:14:18.088Z,66.06
2022-10-12T05:16:45.701Z,65.98
2022-10-12T05:19:13.180Z,65.73
2022-10-12T05:21:40.541Z,65.63
2022-10-12T05:24:08.355Z,65.77
2022-10-12T05:26:35.767Z,65.62
2022-10-12T05:29:03.121Z,65.62
2022-10-12T05:31:30.840Z,65.60
2022-10-12T05:33:58.185Z,65.28
2022-10-12T05:36:29.462Z,64.97
2022-10-12T05:38:57.260Z,64.80
2022-10-12T05:41:24.583Z,64.06
2022-10-12T05:43:53.344Z,64.69
2022-10-12T05:46:21.026Z,64.28
2022-10-12T05:48:48.380Z,64.10
2022-10-12T05:51:15.842Z,62.90
2022-10-12T05:53:43.434Z,63.01
2022-10-12T05:56:10.764Z,63.21
2022-10-12T05:58:38.105Z,63.47
2022-10-12T06:01:07.071Z,63.24
2022-10-12T06:03:35.099Z,63.32
2022-10-12T06:06:03.535Z,63.18
2022-10-12T06:08:30.997Z,62.94
2022-10-12T06:10:58.584Z,61.68
2022-10-12T06:13:26.017Z,57.19
2022-10-12T06:15:53.385Z,58.01
2022-10-12T06:18:21.263Z,57.17
2022-10-12T06:20:49.828Z,56.90
2022-10-12T06:23:17.401Z,58.13
2022-10-12T06:25:48.500Z,58.71
2022-10-12T06:28:16.287Z,59.64
2022-10-12T06:30:43.732Z,59.38
2022-10-12T06:33:11.326Z,58.70
2022-10-12T06:35:38.693Z,59.21
2022-10-12T06:38:06.034Z,60.95
2022-10-12T06:40:33.606Z,59.73
2022-10-12T06:43:02.763Z,60.57
2022-10-12T06:45:30.187Z,59.32
2022-10-12T06:47:57.844Z,58.73
2022-10-12T06:50:47.088Z,59.15
2022-10-12T06:53:23.702Z,57.50
2022-10-12T06:55:52.000Z,54.96
2022-10-12T06:58:20.901Z,57.13
2022-10-12T07:00:52.567Z,56.39
2022-10-12T07:03:20.513Z,55.95
2022-10-12T07:05:47.849Z,57.79
2022-10-12T07:08:15.178Z,56.51
2022-10-12T07:10:42.739Z,55.71
2022-10-12T07:13:10.098Z,55.79
2022-10-12T07:15:37.520Z,54.36
2022-10-12T07:18:05.132Z,54.35
2022-10-12T07:20:32.432Z,53.80
2022-10-12T07:22:59.859Z,53.12
2022-10-12T07:25:27.444Z,52.20
2022-10-12T07:27:54.749Z,52.16
2022-10-12T07:30:22.090Z,52.40
2022-10-12T07:32:49.706Z,51.18
2022-10-12T07:35:17.215Z,52.74
2022-10-12T07:37:44.544Z,50.80
2022-10-12T07:40:12.139Z,50.44
2022-10-12T07:42:59.147Z,50.42
2022-10-12T07:45:30.165Z,49.97
2022-10-12T07:47:57.538Z,48.48
2022-10-12T07:50:25.583Z,48.35
2022-10-12T07:52:53.241Z,48.19
2022-10-12T07:55:20.696Z,48.16
2022-10-12T07:57:47.999Z,48.53
2022-10-12T08:00:15.724Z,46.91
2022-10-12T08:02:43.349Z,46.70
2022-10-12T08:05:10.797Z,47.78
2022-10-12T08:07:38.426Z,49.60
2022-10-12T08:10:06.636Z,47.01
2022-10-12T08:12:33.953Z,48.35
2022-10-12T08:15:01.280Z,46.68
2022-10-12T08:17:28.910Z,47.11
2022-10-12T08:19:56.237Z,45.88
2022-10-12T08:22:23.588Z,45.98
2022-10-12T08:24:51.210Z,44.46
2022-10-12T08:27:18.534Z,45.69
2022-10-12T08:29:46.392Z,44.70
2022-10-12T08:32:13.980Z,45.02
2022-10-12T08:34:41.330Z,44.32
2022-10-12T08:37:08.662Z,44.28
2022-10-12T08:39:36.320Z,43.28
2022-10-12T08:42:26.654Z,43.45
2022-10-12T08:45:35.366Z,43.21
2022-10-12T08:48:18.605Z,42.94
2022-10-12T08:50:52.033Z,42.63
2022-10-12T08:53:36.283Z,42.05
2022-10-12T08:56:03.927Z,42.53
2022-10-12T08:58:36.545Z,43.05
2022-10-12T09:01:22.961Z,43.93
2022-10-12T09:04:18.130Z,42.19
2022-10-12T09:07:00.776Z,41.57
2022-10-12T09:09:52.408Z,42.17
2022-10-12T09:12:44.385Z,43.12
2022-10-12T09:15:17.093Z,41.45
2022-10-12T09:17:53.514Z,41.84
2022-10-12T09:20:35.204Z,42.18
2022-10-12T09:23:23.837Z,42.34
2022-10-12T09:25:53.000Z,42.29
2022-10-12T09:28:46.699Z,43.86
2022-10-12T09:31:45.160Z,44.20
2022-10-12T09:34:16.710Z,42.83
2022-10-12T09:36:46.262Z,41.60
2022-10-12T09:39:19.334Z,42.53
2022-10-12T09:41:48.198Z,43.86
2022-10-12T09:44:31.691Z,43.95
2022-10-12T09:46:59.804Z,45.07
2022-10-12T09:49:43.818Z,45.09
2022-10-12T09:52:11.574Z,43.01
2022-10-12T09:54:52.293Z,44.15
2022-10-12T09:57:39.720Z,43.07
2022-10-12T10:00:28.493Z,42.21
2022-10-12T10:02:56.280Z,44.06
2022-10-12T10:05:26.625Z,43.37
2022-10-12T10:07:54.181Z,42.70
2022-10-12T10:10:29.782Z,41.93
2022-10-12T10:12:59.048Z,41.49
2022-10-12T10:15:33.616Z,41.11
2022-10-12T10:18:05.337Z,40.17
2022-10-12T10:20:43.388Z,40.61
2022-10-12T10:23:27.753Z,40.70
2022-10-12T10:26:01.904Z,39.15
2022-10-12T10:28:30.591Z,39.82
2022-10-12T10:31:06.090Z,40.06
2022-10-12T10:33:34.693Z,40.51
2022-10-12T10:36:06.284Z,39.36
2022-10-12T10:38:53.282Z,39.49
2022-10-12T10:41:20.948Z,39.26
2022-10-12T10:43:48.549Z,39.45
2022-10-12T10:46:16.645Z,40.00
2022-10-12T10:48:59.016Z,38.79
2022-10-12T10:51:49.435Z,39.55
2022-10-12T10:54:22.834Z,39.66
2022-10-12T10:56:56.674Z,39.17
2022-10-12T10:59:39.584Z,40.76
2022-10-12T11:02:16.485Z,42.11
2022-10-12T11:04:45.584Z,40.54
2022-10-12T11:07:22.073Z,38.77
2022-10-12T11:09:53.060Z,40.38
2022-10-12T11:12:31.331Z,41.59
2022-10-12T11:15:05.674Z,40.41
2022-10-12T11:17:42.323Z,39.22
2022-10-12T11:20:37.371Z,38.86
2022-10-12T11:23:10.601Z,40.14
2022-10-12T11:26:01.615Z,40.97
2022-10-12T11:28:31.077Z,40.21
2022-10-12T11:30:58.778Z,40.18
2022-10-12T11:33:38.405Z,40.05
2022-10-12T11:36:07.890Z,38.52
2022-10-12T11:38:45.138Z,37.98
2022-10-12T11:41:35.469Z,38.01
2022-10-12T11:44:37.257Z,38.14
2022-10-12T11:47:08.792Z,38.02
2022-10-12T11:49:53.864Z,38.35
2022-10-12T11:52:26.308Z,36.78
2022-10-12T11:55:19.355Z,40.04
2022-10-12T11:57:46.985Z,39.88
2022-10-12T12:00:18.193Z,39.34
2022-10-12T12:03:23.826Z,38.21
2022-10-12T12:05:51.178Z,39.38
2022-10-12T12:08:40.617Z,39.09
2022-10-12T12:11:28.300Z,38.70
2022-10-12T12:14:25.251Z,39.57
2022-10-12T12:17:14.073Z,40.26
2022-10-12T12:19:43.101Z,41.80
2022-10-12T12:22:49.644Z,40.31
2022-10-12T12:25:19.891Z,39.61
2022-10-12T12:27:57.358Z,38.61
2022-10-12T12:30:30.483Z,39.18
2022-10-12T12:33:20.907Z,37.87
2022-10-12T12:35:58.980Z,39.06
2022-10-12T12:38:30.157Z,41.55
2022-10-12T12:41:11.566Z,39.48
2022-10-12T12:44:00.098Z,40.39
2022-10-12T12:46:52.388Z,39.20
2022-10-12T12:49:38.610Z,39.88
2022-10-12T12:52:10.679Z,39.94
2022-10-12T12:54:43.519Z,39.13
2022-10-12T12:57:19.519Z,40.54
2022-10-12T13:00:06.782Z,41.05
2022-10-12T13:02:53.486Z,42.07
2022-10-12T13:05:20.790Z,40.74
2022-10-12T13:08:15.732Z,40.55
2022-10-12T13:11:01.051Z,40.84
2022-10-12T13:13:39.057Z,40.60
2022-10-12T13:19:22.336Z,42.77
2022-10-12T13:21:51.325Z,41.05
2022-10-12T13:24:30.153Z,40.34
2022-10-12T13:27:02.817Z,40.11
2022-10-12T13:29:41.670Z,39.72
2022-10-12T13:32:18.636Z,39.86
2022-10-12T13:34:46.088Z,40.02
2022-10-12T13:37:14.752Z,40.52
2022-10-12T13:39:44.876Z,40.97
2022-10-12T13:42:14.659Z,40.95
2022-10-12T13:44:42.293Z,41.22
2022-10-12T13:47:24.404Z,42.28
2022-10-12T13:49:52.120Z,41.11
2022-10-12T13:52:27.263Z,41.22
2022-10-12T13:54:59.043Z,40.62
2022-10-12T13:57:38.441Z,41.34
2022-10-12T14:00:10.378Z,40.96
2022-10-12T14:02:37.970Z,41.14
2022-10-12T14:05:11.890Z,42.92
2022-10-12T14:07:39.472Z,42.12
2022-10-12T14:10:08.470Z,41.84
2022-10-12T14:12:35.905Z,42.65
2022-10-12T14:15:04.104Z,41.43
2022-10-12T14:17:31.583Z,41.10
2022-10-12T14:20:15.696Z,42.14
2022-10-12T14:22:46.722Z,42.26
2022-10-12T14:25:16.891Z,42.45
2022-10-12T14:27:44.514Z,41.75
2022-10-12T14:30:20.826Z,42.74
2022-10-12T14:32:48.790Z,42.29
2022-10-12T14:35:18.775Z,41.79
2022-10-12T14:37:46.472Z,41.89
2022-10-12T14:40:33.579Z,42.94
2022-10-12T14:43:09.413Z,43.55
2022-10-12T14:45:37.029Z,45.12
2022-10-12T14:48:05.592Z,45.78
2022-10-12T14:50:32.984Z,46.70
2022-10-12T14:53:04.809Z,46.67
2022-10-12T14:55:33.398Z,47.42
2022-10-12T14:58:01.291Z,47.46
2022-10-12T15:00:30.935Z,47.75
2022-10-12T15:02:58.736Z,48.76
2022-10-12T15:05:28.934Z,48.88
2022-10-12T15:07:56.243Z,49.38
2022-10-12T15:10:23.750Z,49.68
2022-10-12T15:12:51.420Z,49.73
2022-10-12T15:15:30.346Z,50.37
2022-10-12T15:17:58.249Z,50.69
2022-10-12T15:20:26.610Z,50.89
2022-10-12T15:22:53.957Z,51.28
2022-10-12T15:25:59.877Z,52.10
2022-10-12T15:28:30.348Z,52.36
2022-10-12T15:31:16.615Z,52.85
2022-10-12T15:33:44.645Z,52.72
2022-10-12T15:36:12.259Z,53.27
2022-10-12T15:38:39.666Z,53.01
2022-10-12T15:41:15.947Z,53.01
2022-10-12T15:43:43.664Z,53.33
2022-10-12T15:46:13.970Z,53.82
2022-10-12T15:48:41.809Z,54.02
2022-10-12T15:51:17.133Z,54.10
2022-10-12T15:53:44.961Z,54.34
2022-10-12T15:56:13.357Z,54.70
2022-10-12T15:58:40.855Z,54.90
2022-10-12T16:01:14.355Z,55.54
2022-10-12T16:03:42.125Z,55.37
2022-10-12T16:06:09.493Z,55.68
2022-10-12T16:08:36.915Z,56.12
2022-10-12T16:11:05.441Z,56.38
2022-10-12T16:13:32.832Z,56.44
2022-10-12T16:16:00.484Z,56.64
2022-10-12T16:18:28.148Z,56.40
2022-10-12T16:20:55.445Z,56.66
2022-10-12T16:23:27.467Z,57.45
2022-10-12T16:25:55.414Z,56.84
2022-10-12T16:28:23.700Z,57.08
2022-10-12T16:30:51.682Z,57.57
2022-10-12T16:33:19.361Z,57.76
2022-10-12T16:35:46.809Z,58.20
2022-10-12T16:38:15.121Z,58.06
2022-10-12T16:40:42.696Z,58.20
2022-10-12T16:43:10.060Z,58.27
2022-10-12T16:45:37.548Z,57.52
2022-10-12T16:48:05.241Z,58.25
2022-10-12T16:50:32.602Z,58.77
2022-10-12T16:53:00.011Z,58.94
2022-10-12T16:55:27.635Z,58.97
2022-10-12T16:57:55.004Z,59.05
2022-10-12T17:00:22.365Z,58.88
2022-10-12T17:02:51.193Z,59.67
2022-10-12T17:05:20.293Z,59.45
2022-10-12T17:07:47.644Z,59.97
2022-10-12T17:10:15.267Z,59.67
2022-10-12T17:12:42.584Z,59.58
2022-10-12T17:15:10.108Z,59.45
2022-10-12T17:17:37.877Z,59.40
2022-10-12T17:20:05.573Z,59.70
2022-10-12T17:22:32.962Z,59.21
2022-10-12T17:25:00.543Z,59.34
2022-10-12T17:27:31.360Z,60.10
2022-10-12T17:29:59.633Z,60.29
2022-10-12T17:32:27.253Z,60.81
2022-10-12T17:34:54.776Z,60.25
2022-10-12T17:37:22.158Z,60.14
2022-10-12T17:39:50.350Z,60.51
2022-10-12T17:42:18.584Z,60.97
2022-10-12T17:44:46.261Z,61.37
2022-10-12T17:47:13.884Z,61.11
2022-10-12T17:49:41.360Z,60.87
2022-10-12T17:52:09.850Z,61.29
2022-10-12T17:54:37.681Z,61.06
2022-10-12T17:57:05.045Z,61.18
2022-10-12T17:59:32.412Z,61.33
2022-10-12T18:02:00.025Z,61.33
2022-10-12T18:04:27.650Z,61.30
2022-10-12T18:06:54.984Z,61.55
2022-10-12T18:09:22.277Z,61.50
2022-10-12T18:11:49.869Z,61.65
2022-10-12T18:14:17.321Z,61.53
2022-10-12T18:16:44.773Z,62.56
2022-10-12T18:19:12.451Z,62.69
2022-10-12T18:21:40.053Z,62.96
2022-10-12T18:24:12.339Z,62.38
2022-10-12T18:26:43.995Z,62.57
2022-10-12T18:29:11.377Z,63.17
2022-10-12T18:31:38.851Z,62.86
2022-10-12T18:34:06.560Z,62.86
2022-10-12T18:36:33.917Z,62.79
2022-10-12T18:39:01.798Z,63.32
2022-10-12T18:41:29.429Z,63.13
2022-10-12T18:44:00.677Z,62.95
2022-10-12T18:46:29.950Z,62.68
2022-10-12T18:48:57.540Z,63.19
2022-10-12T18:51:29.056Z,63.50
2022-10-12T18:53:56.834Z,63.59
2022-10-12T18:56:24.511Z,63.13
2022-10-12T18:58:51.952Z,63.52
2022-10-12T19:01:24.446Z,63.09
2022-10-12T19:03:52.224Z,63.27
2022-10-12T19:06:21.696Z,63.31
2022-10-12T19:08:49.417Z,63.31
2022-10-12T19:11:18.663Z,63.29
2022-10-12T19:13:54.840Z,63.45
2022-10-12T19:16:22.351Z,63.44
2022-10-12T19:18:49.836Z,63.74
2022-10-12T19:21:19.258Z,63.55
2022-10-12T19:23:46.904Z,62.84
2022-10-12T19:26:18.896Z,63.20
2022-10-12T19:28:46.680Z,63.80
2022-10-12T19:31:16.083Z,64.54
2022-10-12T19:33:43.647Z,64.25
2022-10-12T19:36:12.229Z,64.41
2022-10-12T19:38:39.678Z,64.75
2022-10-12T19:41:07.179Z,64.79
2022-10-12T19:43:35.295Z,64.18
2022-10-12T19:46:07.935Z,64.82
2022-10-12T19:48:36.115Z,64.22
2022-10-12T19:51:07.842Z,64.24
2022-10-12T19:53:35.217Z,64.14
2022-10-12T19:56:04.500Z,64.11
2022-10-12T19:58:32.023Z,64.68
2022-10-12T20:01:06.708Z,65.00
2022-10-12T20:03:35.085Z,65.01
2022-10-12T20:06:06.081Z,64.80
2022-10-12T20:08:33.757Z,64.27
2022-10-12T20:11:01.187Z,64.59
2022-10-12T20:13:28.909Z,64.11
2022-10-12T20:15:56.734Z,64.05
2022-10-12T20:18:24.141Z,64.09
2022-10-12T20:20:51.450Z,63.70
2022-10-12T20:23:19.244Z,63.86
2022-10-12T20:25:51.793Z,64.05
2022-10-12T20:28:19.591Z,63.88
2022-10-12T20:30:47.194Z,64.17
2022-10-12T20:33:14.932Z,64.29
2022-10-12T20:35:47.210Z,64.29
2022-10-12T20:38:14.844Z,64.17
2022-10-12T20:40:42.181Z,63.78
2022-10-12T20:43:09.937Z,63.69
2022-10-12T20:45:37.274Z,63.08
2022-10-12T20:48:04.844Z,63.40
2022-10-12T20:50:32.567Z,64.15
2022-10-12T20:52:59.856Z,64.27
2022-10-12T20:55:27.157Z,64.38
2022-10-12T20:57:54.765Z,64.56
2022-10-12T21:00:22.080Z,64.32
2022-10-12T21:02:49.394Z,65.05
2022-10-12T21:05:17.076Z,65.13
2022-10-12T21:07:44.375Z,64.95
2022-10-12T21:10:11.753Z,65.08
2022-10-12T21:12:39.313Z,65.07
2022-10-12T21:15:06.978Z,64.88
2022-10-12T21:17:34.352Z,64.90
2022-10-12T21:20:01.950Z,65.48
2022-10-12T21:22:29.273Z,65.24
2022-10-12T21:24:56.716Z,65.27
2022-10-12T21:27:24.363Z,65.46
2022-10-12T21:29:51.822Z,65.57
2022-10-12T21:32:19.499Z,66.62
2022-10-12T21:34:48.361Z,65.57
2022-10-12T21:37:15.677Z,65.63
2022-10-12T21:39:43.014Z,64.91
2022-10-12T21:42:10.593Z,65.75
2022-10-12T21:44:37.895Z,65.64
2022-10-12T21:47:05.311Z,66.06
2022-10-12T21:49:32.883Z,65.86
2022-10-12T21:52:00.197Z,65.48
2022-10-12T21:54:27.592Z,65.76
2022-10-12T21:56:55.186Z,65.95
2022-10-12T21:59:23.612Z,66.21
2022-10-12T22:01:50.952Z,65.75
2022-10-12T22:04:18.526Z,65.81
2022-10-12T22:06:45.885Z,65.87
2022-10-12T22:09:16.468Z,65.35
2022-10-12T22:11:44.114Z,64.72
2022-10-12T22:14:13.477Z,64.99
2022-10-12T22:16:40.922Z,65.04
2022-10-12T22:19:08.585Z,64.85
2022-10-12T22:21:36.354Z,64.99
2022-10-12T22:24:03.930Z,64.98
2022-10-12T22:26:31.742Z,65.16
2022-10-12T22:29:01.834Z,64.89
2022-10-12T22:31:29.176Z,65.13
2022-10-12T22:33:56.821Z,65.11
2022-10-12T22:36:24.173Z,65.37
2022-10-12T22:38:51.476Z,65.73
2022-10-12T22:41:20.331Z,65.94
2022-10-12T22:43:48.516Z,65.88
2022-10-12T22:46:16.128Z,66.29
2022-10-12T22:48:43.757Z,65.71
2022-10-12T22:51:16.097Z,66.15
2022-10-12T22:53:43.679Z,66.11
2022-10-12T22:56:16.781Z,65.90
2022-10-12T22:58:45.058Z,66.45
2022-10-12T23:01:16.900Z,66.49
2022-10-12T23:03:45.486Z,66.35
2022-10-12T23:06:15.002Z,66.52
2022-10-12T23:08:42.528Z,66.30
2022-10-12T23:11:12.122Z,66.48
2022-10-12T23:13:39.484Z,66.35
2022-10-12T23:16:08.437Z,66.47
2022-10-12T23:18:36.197Z,66.75
2022-10-12T23:21:10.940Z,66.46
2022-10-12T23:23:39.099Z,64.53
2022-10-12T23:26:08.039Z,65.27
2022-10-12T23:28:35.580Z,65.76
2022-10-12T23:31:06.035Z,66.30
2022-10-12T23:33:33.722Z,66.62
2022-10-12T23:36:06.942Z,67.26
2022-10-12T23:38:34.903Z,66.66
2022-10-12T23:41:02.277Z,66.27
2022-10-12T23:43:29.653Z,65.93
2022-10-12T23:46:02.400Z,66.30
2022-10-12T23:48:29.760Z,66.01
2022-10-12T23:50:57.405Z,66.20
2022-10-12T23:53:24.982Z,65.77
2022-10-12T23:55:52.392Z,65.38
2022-10-12T23:58:20.160Z,65.46
